createdAt,value
2023-04-10T00:00:30.931Z,4.5820
2023-04-10T00:01:34.152Z,4.5233
2023-04-10T00:02:37.533Z,4.0677
2023-04-10T00:03:41.140Z,4.7792
2023-04-10T00:04:44.477Z,4.5668
2023-04-10T00:05:47.675Z,5.2614
2023-04-10T00:06:47.885Z,4.6313
2023-04-10T00:07:51.102Z,3.7224
2023-04-10T00:08:54.471Z,4.8590
2023-04-10T00:09:57.681Z,4.9793
2023-04-10T00:11:00.897Z,4.7530
2023-04-10T00:12:04.107Z,4.9821
2023-04-10T00:13:07.379Z,5.2121
2023-04-10T00:14:10.578Z,4.3481
2023-04-10T00:15:13.800Z,5.2140
2023-04-10T00:16:17.056Z,6.0115
2023-04-10T00:17:20.382Z,4.5225
2023-04-10T00:18:23.593Z,3.7724
2023-04-10T00:19:26.825Z,3.6078
2023-04-10T00:20:30.019Z,4.4097
2023-04-10T00:21:33.239Z,4.0095
2023-04-10T00:22:36.441Z,4.5240
2023-04-10T00:23:39.691Z,3.6080
2023-04-10T00:24:42.919Z,4.1780
2023-04-10T00:25:46.140Z,4.6953
2023-04-10T00:26:49.362Z,4.9241
2023-04-10T00:27:52.607Z,4.2374
2023-04-10T00:28:55.815Z,4.0643
2023-04-10T00:29:59.026Z,4.4687
2023-04-10T00:31:02.266Z,5.4398
2023-04-10T00:32:05.499Z,4.2938
2023-04-10T00:33:08.708Z,4.0092
2023-04-10T00:34:12.101Z,4.2818
2023-04-10T00:35:15.318Z,4.6396
2023-04-10T00:36:18.540Z,3.8934
2023-04-10T00:37:21.771Z,4.8683
2023-04-10T00:38:24.993Z,3.8931
2023-04-10T00:39:28.202Z,3.9527
2023-04-10T00:40:28.412Z,3.7269
2023-04-10T00:41:28.392Z,4.2832
2023-04-10T00:42:31.663Z,5.0378
2023-04-10T00:43:34.882Z,4.1211
2023-04-10T00:44:38.163Z,5.4382
2023-04-10T00:45:41.497Z,4.8076
2023-04-10T00:46:44.738Z,5.6017
2023-04-10T00:47:48.031Z,5.2062
2023-04-10T00:48:51.326Z,4.1756
2023-04-10T00:49:54.604Z,5.3199
2023-04-10T00:50:57.855Z,4.4633
2023-04-10T00:51:58.527Z,4.4646
2023-04-10T00:52:58.473Z,5.5554
2023-04-10T00:54:01.784Z,4.9768
2023-04-10T00:55:05.066Z,5.6055
2023-04-10T00:56:08.324Z,5.6059
2023-04-10T00:57:11.758Z,4.7385
2023-04-10T00:58:14.972Z,5.6088
2023-04-10T00:59:18.259Z,6.0686
2023-04-10T01:00:21.492Z,5.6654
2023-04-10T01:01:21.561Z,5.7914
2023-04-10T01:02:24.919Z,5.7777
2023-04-10T01:03:25.098Z,4.1599
2023-04-10T01:04:25.095Z,5.4176
2023-04-10T01:05:28.423Z,5.1360
2023-04-10T01:06:31.706Z,5.9492
2023-04-10T01:07:34.958Z,5.2648
2023-04-10T01:08:38.240Z,5.5519
2023-04-10T01:09:38.246Z,6.1500
2023-04-10T01:10:41.527Z,5.5523
2023-04-10T01:11:41.517Z,5.4268
2023-04-10T01:12:44.793Z,6.2388
2023-04-10T01:13:44.888Z,5.4896
2023-04-10T01:14:48.139Z,5.5420
2023-04-10T01:15:51.425Z,4.8665
2023-04-10T01:16:54.751Z,5.3180
2023-04-10T01:17:58.003Z,5.3203
2023-04-10T01:19:01.262Z,5.5493
2023-04-10T01:20:04.514Z,5.8970
2023-04-10T01:21:07.770Z,5.6091
2023-04-10T01:22:11.072Z,5.3782
2023-04-10T01:23:14.304Z,5.8908
2023-04-10T01:24:17.599Z,4.8655
2023-04-10T01:25:20.826Z,5.0355
2023-04-10T01:26:24.104Z,5.7246
2023-04-10T01:27:27.372Z,6.0644
2023-04-10T01:28:30.637Z,5.9506
2023-04-10T01:29:33.903Z,6.0649
2023-04-10T01:30:37.250Z,6.2944
2023-04-10T01:31:37.310Z,6.5676
2023-04-10T01:32:40.612Z,6.0619
2023-04-10T01:33:43.878Z,5.6047
2023-04-10T01:34:47.137Z,4.6336
2023-04-10T01:35:50.437Z,4.4095
2023-04-10T01:36:50.563Z,4.0310
2023-04-10T01:37:53.842Z,4.9779
2023-04-10T01:38:57.104Z,4.6332
2023-04-10T01:40:00.379Z,4.9786
2023-04-10T01:41:03.668Z,4.5190
2023-04-10T01:42:06.940Z,5.4918
2023-04-10T01:43:10.232Z,5.3212
2023-04-10T01:44:13.510Z,6.7482
2023-04-10T01:45:16.750Z,4.8083
2023-04-10T01:46:20.010Z,5.2083
2023-04-10T01:47:23.282Z,5.4382
2023-04-10T01:48:26.520Z,5.7794
2023-04-10T01:49:29.788Z,4.8076
2023-04-10T01:50:33.048Z,5.3194
2023-04-10T01:51:36.329Z,5.2092
2023-04-10T01:52:39.625Z,4.4066
2023-04-10T01:53:42.894Z,4.9759
2023-04-10T01:54:46.114Z,4.0057
2023-04-10T01:55:49.396Z,4.6370
2023-04-10T01:56:52.641Z,4.2325
2023-04-10T01:57:55.945Z,6.2397
2023-04-10T01:58:59.401Z,5.7171
2023-04-10T02:00:02.648Z,5.5968
2023-04-10T02:01:05.911Z,5.2623
2023-04-10T02:02:06.045Z,5.0604
2023-04-10T02:03:09.575Z,6.0591
2023-04-10T02:04:09.738Z,5.6398
2023-04-10T02:05:21.625Z,6.1759
2023-04-10T02:06:14.660Z,6.9250
2023-04-10T02:07:17.904Z,6.2968
2023-04-10T02:08:21.225Z,6.0678
2023-04-10T02:09:24.449Z,6.7459
2023-04-10T02:10:27.779Z,6.8148
2023-04-10T02:11:31.044Z,4.6295
2023-04-10T02:12:34.269Z,5.8379
2023-04-10T02:13:37.685Z,4.7403
2023-04-10T02:14:40.933Z,4.4063
2023-04-10T02:15:44.225Z,4.4657
2023-04-10T02:16:44.254Z,4.7601
2023-04-10T02:17:47.545Z,5.3235
2023-04-10T02:18:50.787Z,5.0345
2023-04-10T02:19:54.068Z,5.1499
2023-04-10T02:20:57.300Z,5.0351
2023-04-10T02:22:00.555Z,5.4382
2023-04-10T02:23:04.069Z,4.9224
2023-04-10T02:24:03.868Z,4.8830
2023-04-10T02:25:07.095Z,4.3499
2023-04-10T02:26:10.837Z,4.9232
2023-04-10T02:27:10.553Z,4.0277
2023-04-10T02:28:13.798Z,4.9237
2023-04-10T02:29:17.036Z,4.8651
2023-04-10T02:30:20.274Z,4.6385
2023-04-10T02:31:23.545Z,4.6356
2023-04-10T02:32:26.904Z,4.9799
2023-04-10T02:33:30.140Z,5.4286
2023-04-10T02:34:33.431Z,5.6084
2023-04-10T02:35:37.179Z,5.8921
2023-04-10T02:36:37.205Z,6.4898
2023-04-10T02:37:37.161Z,6.9992
2023-04-10T02:38:37.070Z,7.2362
2023-04-10T02:39:40.366Z,6.6824
2023-04-10T02:40:43.600Z,7.9550
2023-04-10T02:41:46.882Z,5.8941
2023-04-10T02:42:50.118Z,5.8956
2023-04-10T02:43:53.617Z,5.7802
2023-04-10T02:44:53.596Z,5.6502
2023-04-10T02:45:56.872Z,5.2091
2023-04-10T02:47:00.923Z,5.1948
2023-04-10T02:48:00.703Z,5.5697
2023-04-10T02:49:03.943Z,4.2366
2023-04-10T02:50:07.209Z,5.3802
2023-04-10T02:51:10.483Z,3.2620
2023-04-10T02:52:13.711Z,5.2651
2023-04-10T02:53:16.946Z,5.2673
2023-04-10T02:54:17.029Z,5.7916
2023-04-10T02:55:20.300Z,5.0328
2023-04-10T02:56:23.526Z,5.3773
2023-04-10T02:57:26.801Z,4.0066
2023-04-10T02:58:30.050Z,5.2664
2023-04-10T02:59:33.288Z,5.4944
2023-04-10T03:00:36.522Z,5.9524
2023-04-10T03:01:40.075Z,5.9446
2023-04-10T03:02:43.438Z,6.1618
2023-04-10T03:03:43.415Z,4.8870
2023-04-10T03:04:46.758Z,5.4295
2023-04-10T03:05:50.012Z,3.8878
2023-04-10T03:06:53.265Z,4.4623
2023-04-10T03:07:56.497Z,4.8094
2023-04-10T03:08:59.790Z,4.6930
2023-04-10T03:10:03.452Z,4.8059
2023-04-10T03:11:03.182Z,4.8152
2023-04-10T03:12:06.428Z,3.4916
2023-04-10T03:13:09.694Z,3.0900
2023-04-10T03:14:13.060Z,3.7204
2023-04-10T03:15:16.731Z,3.8225
2023-04-10T03:16:16.513Z,5.4838
2023-04-10T03:17:19.742Z,4.3480
2023-04-10T03:18:23.000Z,4.4091
2023-04-10T03:19:26.238Z,3.3184
2023-04-10T03:20:29.997Z,4.0081
2023-04-10T03:21:30.264Z,3.7518
2023-04-10T03:22:33.513Z,3.4914
2023-04-10T03:23:37.133Z,3.7214
2023-04-10T03:24:36.941Z,5.4154
2023-04-10T03:25:40.196Z,5.5505
2023-04-10T03:26:40.388Z,5.8441
2023-04-10T03:27:43.656Z,5.3135
2023-04-10T03:28:46.945Z,4.4631
2023-04-10T03:29:50.200Z,4.8031
2023-04-10T03:30:53.454Z,5.2107
2023-04-10T03:31:56.779Z,4.8075
2023-04-10T03:32:56.690Z,4.1638
2023-04-10T03:34:00.210Z,4.2779
2023-04-10T03:35:03.482Z,5.5458
2023-04-10T03:36:06.745Z,3.0332
2023-04-10T03:37:10.046Z,4.3508
2023-04-10T03:38:13.369Z,3.8317
2023-04-10T03:39:13.433Z,2.5309
2023-04-10T03:40:16.669Z,1.6009
2023-04-10T03:41:19.959Z,2.6333
2023-04-10T03:42:23.241Z,3.7182
2023-04-10T03:43:26.505Z,2.4032
2023-04-10T03:44:29.757Z,1.3728
2023-04-10T03:45:33.056Z,2.6328
2023-04-10T03:46:33.072Z,3.3766
2023-04-10T03:47:36.331Z,2.5763
2023-04-10T03:48:39.574Z,3.7746
2023-04-10T03:49:42.819Z,2.6338
2023-04-10T03:50:46.061Z,1.3737
2023-04-10T03:51:49.327Z,3.4342
2023-04-10T03:52:52.588Z,0.9728
2023-04-10T03:53:56.121Z,2.8051
2023-04-10T03:54:56.065Z,3.4273
2023-04-10T03:55:59.460Z,3.1461
2023-04-10T03:57:03.270Z,4.6805
2023-04-10T03:58:03.029Z,2.2824
2023-04-10T03:59:06.302Z,1.7171
2023-04-10T04:00:09.514Z,2.6321
2023-04-10T04:01:12.763Z,1.9468
2023-04-10T04:02:16.289Z,3.3655
2023-04-10T04:03:19.832Z,2.8578
2023-04-10T04:04:20.174Z,2.4088
2023-04-10T04:05:20.070Z,1.4400
2023-04-10T04:06:23.298Z,1.1443
2023-04-10T04:07:26.574Z,2.5761
2023-04-10T04:08:29.922Z,2.4599
2023-04-10T04:09:33.224Z,1.9423
2023-04-10T04:10:36.443Z,3.4327
2023-04-10T04:11:39.688Z,4.9251
2023-04-10T04:12:42.909Z,4.1213
2023-04-10T04:13:46.169Z,3.1487
2023-04-10T04:14:49.611Z,3.0801
2023-04-10T04:15:52.971Z,3.8941
2023-04-10T04:16:56.262Z,4.2277
2023-04-10T04:17:59.525Z,4.1781
2023-04-10T04:19:02.826Z,3.2036
2023-04-10T04:20:06.107Z,1.6587
2023-04-10T04:21:09.311Z,1.6590
2023-04-10T04:22:12.950Z,2.0537
2023-04-10T04:23:16.167Z,2.2843
2023-04-10T04:24:19.430Z,1.7748
2023-04-10T04:25:22.649Z,3.2055
2023-04-10T04:26:25.921Z,1.0878
2023-04-10T04:27:29.172Z,1.0299
2023-04-10T04:28:32.413Z,1.1446
2023-04-10T04:29:35.922Z,0.0000
2023-04-10T04:30:36.300Z,0.0603
2023-04-10T04:31:36.123Z,0.6599
2023-04-10T04:32:39.400Z,0.0000
2023-04-10T04:33:43.100Z,0.2862
2023-04-10T04:34:42.887Z,0.0000
2023-04-10T04:35:46.200Z,0.0572
2023-04-10T04:36:49.429Z,0.0000
2023-04-10T04:37:52.732Z,0.0000
2023-04-10T04:38:55.959Z,0.0000
2023-04-10T04:39:59.226Z,0.0000
2023-04-10T04:41:02.467Z,0.0573
2023-04-10T04:42:03.761Z,0.4132
2023-04-10T04:43:07.011Z,2.4045
2023-04-10T04:44:10.680Z,3.0336
2023-04-10T04:45:10.542Z,3.1289
2023-04-10T04:46:13.841Z,3.3131
2023-04-10T04:47:17.125Z,2.8022
2023-04-10T04:48:20.383Z,2.6318
2023-04-10T04:49:24.054Z,4.4638
2023-04-10T04:50:24.870Z,4.4501
2023-04-10T04:51:24.689Z,3.8073
2023-04-10T04:52:27.949Z,4.9213
2023-04-10T04:53:31.188Z,4.0075
2023-04-10T04:54:34.432Z,2.2888
2023-04-10T04:55:37.787Z,2.4049
2023-04-10T04:56:40.994Z,3.0868
2023-04-10T04:57:44.274Z,3.5487
2023-04-10T04:58:47.496Z,2.9759
2023-04-10T04:59:50.747Z,2.9203
2023-04-10T05:00:54.046Z,3.8917
2023-04-10T05:01:58.306Z,3.2611
2023-04-10T05:02:58.225Z,3.2132
2023-04-10T05:04:01.570Z,3.0836
2023-04-10T05:05:04.869Z,1.9444
2023-04-10T05:06:08.699Z,2.8025
2023-04-10T05:07:08.464Z,2.4599
2023-04-10T05:08:11.695Z,2.6326
2023-04-10T05:09:14.967Z,2.1758
2023-04-10T05:10:18.195Z,2.2885
2023-04-10T05:11:21.590Z,2.5192
2023-04-10T05:12:23.449Z,3.4436
2023-04-10T05:13:26.709Z,4.0648
2023-04-10T05:14:29.980Z,3.3771
2023-04-10T05:15:33.281Z,3.4897
2023-04-10T05:16:36.772Z,3.3190
2023-04-10T05:17:36.575Z,3.0165
2023-04-10T05:18:39.802Z,3.2034
2023-04-10T05:19:41.385Z,3.2919
2023-04-10T05:20:44.657Z,2.1748
2023-04-10T05:21:49.258Z,1.8881
2023-04-10T05:22:49.124Z,2.9587
2023-04-10T05:23:52.351Z,1.7163
2023-04-10T05:24:55.855Z,2.9660
2023-04-10T05:25:59.115Z,3.4331
2023-04-10T05:27:02.439Z,1.7170
2023-04-10T05:28:05.623Z,2.9752
2023-04-10T05:29:08.938Z,2.6333
2023-04-10T05:30:12.164Z,3.1451
2023-04-10T05:31:15.466Z,4.0072
2023-04-10T05:32:18.734Z,1.6016
2023-04-10T05:33:21.992Z,2.5761
2023-04-10T05:34:25.216Z,2.4600
2023-04-10T05:35:28.494Z,2.4611
2023-04-10T05:36:31.725Z,3.0332
2023-04-10T05:37:34.971Z,2.4621
2023-04-10T05:38:38.223Z,2.6331
2023-04-10T05:39:38.298Z,1.6289
2023-04-10T05:40:41.497Z,3.0889
2023-04-10T05:41:44.752Z,2.0039
2023-04-10T05:42:47.995Z,2.6896
2023-04-10T05:43:51.259Z,2.1180
2023-04-10T05:44:54.485Z,2.2322
2023-04-10T05:45:57.829Z,2.6338
2023-04-10T05:47:01.076Z,2.9141
2023-04-10T05:48:04.690Z,2.3990
2023-04-10T05:49:04.466Z,2.4138
2023-04-10T05:50:07.725Z,2.5755
2023-04-10T05:51:11.004Z,3.0337
2023-04-10T05:52:14.224Z,0.8012
2023-04-10T05:53:17.481Z,1.5451
2023-04-10T05:54:20.738Z,2.9192
2023-04-10T05:55:23.969Z,1.9457
2023-04-10T05:56:27.257Z,1.5461
2023-04-10T05:57:30.473Z,2.2881
2023-04-10T05:58:33.742Z,1.4314
2023-04-10T05:59:36.980Z,2.2313
2023-04-10T06:00:40.243Z,0.0000
2023-04-10T06:01:43.485Z,1.3737
2023-04-10T06:02:46.941Z,2.4043
2023-04-10T06:03:46.966Z,1.9898
2023-04-10T06:04:46.916Z,1.9901
2023-04-10T06:05:50.158Z,0.2857
2023-04-10T06:06:53.412Z,1.7175
2023-04-10T06:07:58.352Z,2.5749
2023-04-10T06:08:58.438Z,1.9966
2023-04-10T06:10:01.656Z,2.3430
2023-04-10T06:11:04.911Z,1.7748
2023-04-10T06:12:08.187Z,2.5178
2023-04-10T06:13:11.465Z,2.0030
2023-04-10T06:14:14.710Z,1.6597
2023-04-10T06:15:17.952Z,1.7740
2023-04-10T06:16:21.220Z,1.6030
2023-04-10T06:17:24.484Z,3.1467
2023-04-10T06:18:27.744Z,1.8317
2023-04-10T06:19:31.002Z,0.6864
2023-04-10T06:20:34.272Z,1.8890
2023-04-10T06:21:37.540Z,1.8887
2023-04-10T06:22:40.839Z,2.4032
2023-04-10T06:23:44.067Z,1.3154
2023-04-10T06:24:47.306Z,0.8587
2023-04-10T06:25:50.562Z,2.8621
2023-04-10T06:26:53.797Z,4.5214
2023-04-10T06:27:57.061Z,2.6334
2023-04-10T06:29:00.352Z,3.8918
2023-04-10T06:30:03.667Z,3.3742
2023-04-10T06:31:06.882Z,3.6617
2023-04-10T06:32:10.123Z,3.6638
2023-04-10T06:33:13.381Z,3.8913
2023-04-10T06:34:16.639Z,2.6333
2023-04-10T06:35:19.875Z,1.6024
2023-04-10T06:36:23.173Z,4.1785
2023-04-10T06:37:26.515Z,4.8051
2023-04-10T06:38:29.840Z,3.8321
2023-04-10T06:39:33.087Z,2.1716
2023-04-10T06:40:36.417Z,0.6868
2023-04-10T06:41:39.624Z,2.8595
2023-04-10T06:42:42.858Z,3.3762
2023-04-10T06:43:46.132Z,1.8895
2023-04-10T06:44:49.423Z,1.2016
2023-04-10T06:45:52.762Z,2.2888
2023-04-10T06:46:55.998Z,2.5148
2023-04-10T06:47:59.427Z,2.4017
2023-04-10T06:49:03.373Z,1.4860
2023-04-10T06:50:03.185Z,1.4358
2023-04-10T06:51:06.480Z,2.0594
2023-04-10T06:52:09.756Z,4.1192
2023-04-10T06:53:13.000Z,3.3183
2023-04-10T06:54:16.285Z,2.6330
2023-04-10T06:55:19.557Z,2.5167
2023-04-10T06:56:22.990Z,4.4499
2023-04-10T06:57:26.248Z,2.1178
2023-04-10T06:58:29.477Z,2.4611
2023-04-10T06:59:32.766Z,4.0078
2023-04-10T07:00:36.002Z,3.8910
2023-04-10T07:01:39.287Z,3.0341
2023-04-10T07:02:42.624Z,2.5162
2023-04-10T07:03:46.007Z,0.4001
2023-04-10T07:04:50.411Z,1.1425
2023-04-10T07:05:50.281Z,2.7291
2023-04-10T07:06:53.543Z,2.2310
2023-04-10T07:07:56.798Z,0.3435
2023-04-10T07:09:00.078Z,1.3735
2023-04-10T07:10:03.336Z,5.0924
2023-04-10T07:11:07.025Z,4.1717
2023-04-10T07:12:07.076Z,1.4462
2023-04-10T07:13:07.873Z,3.4930
2023-04-10T07:14:08.076Z,5.0626
2023-04-10T07:15:08.360Z,3.4271
2023-04-10T07:16:08.182Z,3.1211
2023-04-10T07:17:11.418Z,2.6328
2023-04-10T07:18:11.714Z,2.5835
2023-04-10T07:19:14.961Z,2.1735
2023-04-10T07:20:18.466Z,1.0268
2023-04-10T07:21:21.704Z,0.0572
2023-04-10T07:22:24.992Z,0.4005
2023-04-10T07:23:28.494Z,0.4576
2023-04-10T07:24:28.294Z,1.0256
2023-04-10T07:25:28.402Z,2.5289
2023-04-10T07:26:31.687Z,1.4307
2023-04-10T07:27:34.991Z,2.5733
2023-04-10T07:28:38.293Z,0.9722
2023-04-10T07:29:41.809Z,1.9446
2023-04-10T07:30:41.651Z,2.4718
2023-04-10T07:31:45.002Z,0.9146
2023-04-10T07:32:45.354Z,2.7086
2023-04-10T07:33:45.230Z,2.1079
2023-04-10T07:34:48.500Z,2.5744
2023-04-10T07:35:51.796Z,2.9170
2023-04-10T07:36:55.074Z,4.4620
2023-04-10T07:37:55.197Z,4.8165
2023-04-10T07:38:58.534Z,4.3464
2023-04-10T07:40:01.788Z,3.5459
2023-04-10T07:41:05.082Z,4.8639
2023-04-10T07:42:08.509Z,3.5454
2023-04-10T07:43:11.788Z,4.8541
2023-04-10T07:44:15.048Z,3.3172
2023-04-10T07:45:15.116Z,4.0419
2023-04-10T07:46:18.904Z,1.1436
2023-04-10T07:47:18.741Z,1.9812
2023-04-10T07:48:22.037Z,1.5429
2023-04-10T07:49:25.366Z,3.3178
2023-04-10T07:50:28.638Z,5.7165
2023-04-10T07:51:31.970Z,4.6337
2023-04-10T07:52:35.247Z,2.8020
2023-04-10T07:53:35.290Z,2.8347
2023-04-10T07:54:38.609Z,4.0024
2023-04-10T07:55:39.560Z,4.3400
2023-04-10T07:56:39.507Z,3.9332
2023-04-10T07:57:43.049Z,4.5106
2023-04-10T07:58:42.866Z,2.8928
2023-04-10T07:59:46.146Z,3.5472
2023-04-10T08:00:46.771Z,4.5390
2023-04-10T08:01:50.133Z,5.6053
2023-04-10T08:02:50.342Z,3.4322
2023-04-10T08:03:50.415Z,1.4459
2023-04-10T08:04:50.492Z,0.1809
2023-04-10T08:05:50.428Z,1.5056
2023-04-10T08:06:53.697Z,1.8875
2023-04-10T08:07:57.125Z,1.0298
2023-04-10T08:09:00.447Z,4.0520
2023-04-10T08:10:03.798Z,2.6302
2023-04-10T08:11:07.052Z,1.8292
2023-04-10T08:12:10.389Z,2.5175
2023-04-10T08:13:10.408Z,4.9408
2023-04-10T08:14:13.765Z,4.6342
2023-04-10T08:15:14.760Z,4.2084
2023-04-10T08:16:18.120Z,4.0617
2023-04-10T08:17:21.495Z,2.9726
2023-04-10T08:18:22.312Z,2.8528
2023-04-10T08:19:25.666Z,3.0304
2023-04-10T08:20:28.998Z,2.6286
2023-04-10T08:21:32.420Z,2.1719
2023-04-10T08:22:35.684Z,2.0561
2023-04-10T08:23:38.979Z,2.0588
2023-04-10T08:24:42.299Z,0.0000
2023-04-10T08:25:45.593Z,1.0861
2023-04-10T08:26:49.562Z,2.8596
2023-04-10T08:27:49.456Z,2.2721
2023-04-10T08:28:53.047Z,3.5453
2023-04-10T08:29:53.118Z,1.6813
2023-04-10T08:30:56.498Z,2.1709
2023-04-10T08:31:59.804Z,1.0280
2023-04-10T08:33:03.203Z,2.8591
2023-04-10T08:34:06.533Z,3.7152
2023-04-10T08:35:09.934Z,3.4858
2023-04-10T08:36:10.044Z,2.7081
2023-04-10T08:37:13.360Z,3.1986
2023-04-10T08:38:16.759Z,2.8012
2023-04-10T08:39:20.059Z,1.7135
2023-04-10T08:40:23.409Z,3.0890
2023-04-10T08:41:23.639Z,2.8273
2023-04-10T08:43:29.482Z,4.4549
2023-04-10T08:44:32.771Z,1.3124
2023-04-10T08:45:36.262Z,2.0556
2023-04-10T08:46:39.794Z,1.9425
2023-04-10T08:47:39.749Z,0.5418
2023-04-10T08:48:43.029Z,0.9144
2023-04-10T08:49:46.387Z,4.1176
2023-04-10T08:50:49.717Z,4.7419
2023-04-10T08:51:53.240Z,5.5365
2023-04-10T08:52:56.570Z,3.2527
2023-04-10T08:53:59.929Z,1.0295
2023-04-10T08:55:03.217Z,0.0571
2023-04-10T08:56:06.569Z,4.5172
2023-04-10T08:57:11.054Z,4.1736
2023-04-10T08:58:10.992Z,4.4427
2023-04-10T08:59:14.299Z,1.2580
2023-04-10T09:01:19.823Z,1.6292
2023-04-10T09:02:23.152Z,3.6612
2023-04-10T09:03:26.605Z,4.1112
2023-04-10T09:04:26.584Z,3.3183
2023-04-10T09:05:29.943Z,4.1089
2023-04-10T09:06:33.300Z,2.7450
2023-04-10T09:07:36.607Z,2.2856
2023-04-10T09:08:39.961Z,3.0302
2023-04-10T09:09:43.264Z,1.7721
2023-04-10T09:10:46.582Z,0.9718
2023-04-10T09:11:49.994Z,2.3451
2023-04-10T09:12:53.274Z,3.1986
2023-04-10T09:13:56.725Z,2.8582
2023-04-10T09:14:56.635Z,1.8698
2023-04-10T09:15:56.722Z,2.8329
2023-04-10T09:17:00.055Z,1.3144
2023-04-10T09:18:03.489Z,2.9144
2023-04-10T09:19:05.721Z,2.1697
2023-04-10T09:20:03.563Z,2.1080
2023-04-10T09:21:06.878Z,1.0865
2023-04-10T09:22:10.233Z,2.9720
2023-04-10T09:23:13.535Z,5.5438
2023-04-10T09:24:13.633Z,4.1545
2023-04-10T09:25:16.990Z,2.3453
2023-04-10T09:26:17.107Z,0.9025
2023-04-10T09:27:20.505Z,3.4325
2023-04-10T09:28:23.792Z,2.8557
2023-04-10T09:29:27.096Z,0.6292
2023-04-10T09:30:30.404Z,1.6006
2023-04-10T09:31:33.726Z,0.4575
2023-04-10T09:32:37.061Z,0.5718
2023-04-10T09:33:40.362Z,2.2297
2023-04-10T09:34:43.690Z,2.1730
2023-04-10T09:35:47.002Z,4.7442
2023-04-10T09:36:50.366Z,3.5448
2023-04-10T09:37:53.705Z,2.6860
2023-04-10T09:38:57.044Z,0.8573
2023-04-10T09:40:00.418Z,0.2286
2023-04-10T09:41:03.725Z,0.6283
2023-04-10T09:42:07.044Z,1.7158
2023-04-10T09:43:10.337Z,1.6584
2023-04-10T09:44:13.700Z,0.7435
2023-04-10T09:45:17.014Z,1.6571
2023-04-10T09:46:20.392Z,0.7995
2023-04-10T09:47:23.758Z,3.3740
2023-04-10T09:48:27.140Z,3.2559
2023-04-10T09:49:30.516Z,2.2272
2023-04-10T09:50:36.314Z,3.0856
2023-04-10T09:51:34.291Z,2.0981
2023-04-10T09:52:37.565Z,2.1712
2023-04-10T09:53:37.664Z,2.8338
2023-04-10T09:54:40.967Z,1.3715
2023-04-10T09:55:44.278Z,2.3450
2023-04-10T09:56:47.589Z,2.6285
2023-04-10T09:57:50.943Z,2.9173
2023-04-10T09:58:54.414Z,2.6868
2023-04-10T09:59:54.332Z,1.0242
2023-04-10T10:00:57.687Z,1.4294
2023-04-10T10:02:01.099Z,1.9430
2023-04-10T10:03:04.698Z,3.1391
2023-04-10T10:04:04.869Z,1.7991
2023-04-10T10:05:08.268Z,1.7705
2023-04-10T10:06:08.530Z,1.7426
2023-04-10T10:07:11.871Z,3.3111
2023-04-10T10:08:15.176Z,2.5727
2023-04-10T10:09:19.498Z,1.8859
2023-04-10T10:10:19.353Z,1.6670
2023-04-10T10:11:22.624Z,1.7153
2023-04-10T10:12:25.932Z,1.0296
2023-04-10T10:13:29.462Z,3.3600
2023-04-10T10:14:32.809Z,2.0021
2023-04-10T10:15:36.126Z,2.8007
2023-04-10T10:16:39.496Z,2.5154
2023-04-10T10:17:42.778Z,2.2868
2023-04-10T10:18:46.059Z,3.2041
2023-04-10T10:19:49.377Z,2.0587
2023-04-10T10:20:52.656Z,1.0289
2023-04-10T10:21:52.672Z,3.2586
2023-04-10T10:22:55.965Z,4.0603
2023-04-10T10:23:56.016Z,2.8349
2023-04-10T10:24:59.301Z,3.4881
2023-04-10T10:26:03.971Z,3.1345
2023-04-10T10:27:03.795Z,3.7990
2023-04-10T10:28:07.091Z,4.6348
2023-04-10T10:29:10.370Z,1.6012
2023-04-10T10:30:28.321Z,3.3183
2023-04-10T10:31:15.948Z,3.6036
2023-04-10T10:32:19.316Z,1.8882
2023-04-10T10:33:22.610Z,3.5422
2023-04-10T10:34:25.929Z,2.6869
2023-04-10T10:35:30.108Z,2.8595
2023-04-10T10:36:30.035Z,1.8469
2023-04-10T10:37:33.307Z,3.8878
2023-04-10T10:38:36.905Z,1.3100
2023-04-10T10:39:40.190Z,3.5436
2023-04-10T10:40:43.529Z,4.2904
2023-04-10T10:41:43.570Z,2.1097
2023-04-10T10:42:46.916Z,2.4018
2023-04-10T10:43:50.160Z,1.3148
2023-04-10T10:44:53.472Z,1.3158
2023-04-10T10:45:56.809Z,2.2305
2023-04-10T10:47:00.138Z,2.1152
2023-04-10T10:48:03.539Z,2.9157
2023-04-10T10:49:03.534Z,1.3869
2023-04-10T10:50:06.822Z,2.4579
2023-04-10T10:51:10.153Z,2.5148
2023-04-10T10:52:13.534Z,2.3434
2023-04-10T10:53:16.845Z,0.8575
2023-04-10T10:54:20.157Z,0.6858
2023-04-10T10:55:23.490Z,2.5162
2023-04-10T10:56:26.823Z,1.7718
2023-04-10T10:57:30.127Z,1.9440
2023-04-10T10:58:33.470Z,2.1722
2023-04-10T10:59:36.790Z,0.3431
2023-04-10T11:00:40.073Z,1.7149
2023-04-10T11:01:43.530Z,4.4035
2023-04-10T11:02:43.481Z,5.4914
2023-04-10T11:03:43.473Z,4.5242
2023-04-10T11:04:46.905Z,5.0829
2023-04-10T11:05:50.241Z,4.3949
2023-04-10T11:06:53.577Z,6.0609
2023-04-10T11:07:56.900Z,5.0861
2023-04-10T11:08:57.311Z,4.2799
2023-04-10T11:09:57.313Z,2.0402
2023-04-10T11:11:00.588Z,2.5156
2023-04-10T11:12:04.138Z,3.1456
2023-04-10T11:13:03.924Z,2.2906
2023-04-10T11:14:07.261Z,1.2011
2023-04-10T11:15:10.570Z,1.5437
2023-04-10T11:16:13.936Z,2.7445
2023-04-10T11:17:17.259Z,1.6574
2023-04-10T11:18:20.548Z,4.7461
2023-04-10T11:19:24.295Z,2.2301
2023-04-10T11:20:24.297Z,1.8566
2023-04-10T11:21:27.609Z,2.1154
2023-04-10T11:22:30.960Z,2.4019
2023-04-10T11:23:34.254Z,2.4004
2023-04-10T11:24:37.574Z,2.1733
2023-04-10T11:25:40.877Z,4.2882
2023-04-10T11:26:44.379Z,4.0507
2023-04-10T11:27:47.774Z,4.9698
2023-04-10T11:28:51.289Z,4.4407
2023-04-10T11:29:54.579Z,2.8597
2023-04-10T11:30:57.884Z,2.1732
2023-04-10T11:32:01.270Z,2.6306
2023-04-10T11:33:01.297Z,2.8354
2023-04-10T11:34:02.202Z,1.0092
2023-04-10T11:35:05.725Z,2.0013
2023-04-10T11:36:05.569Z,0.6032
2023-04-10T11:37:05.601Z,0.1807
2023-04-10T11:38:08.941Z,5.2614
2023-04-10T11:39:12.348Z,4.1149
2023-04-10T11:40:15.662Z,3.2571
2023-04-10T11:41:19.092Z,7.2003
2023-04-10T11:42:22.369Z,4.6251
2023-04-10T11:43:25.677Z,3.6590
2023-04-10T11:44:29.151Z,2.2877
2023-04-10T11:45:32.444Z,2.7962
2023-04-10T11:46:35.725Z,4.5760
2023-04-10T11:47:39.112Z,2.4591
2023-04-10T11:48:42.405Z,1.5998
2023-04-10T11:49:45.742Z,3.4869
2023-04-10T11:50:49.019Z,2.6870
2023-04-10T11:51:52.334Z,1.4870
2023-04-10T11:52:56.576Z,0.0000
2023-04-10T11:53:56.503Z,1.4282
2023-04-10T11:54:59.806Z,1.8862
2023-04-10T11:56:03.119Z,2.5168
2023-04-10T11:57:06.411Z,3.5451
2023-04-10T11:58:09.714Z,3.4890
2023-04-10T11:59:13.042Z,1.9440
2023-04-10T12:00:16.360Z,2.3448
2023-04-10T12:01:19.750Z,0.0572
2023-04-10T12:02:23.118Z,5.5418
2023-04-10T12:03:26.621Z,5.2534
2023-04-10T12:04:26.708Z,5.3629
2023-04-10T12:05:26.603Z,2.7727
2023-04-10T12:06:29.873Z,0.6859
2023-04-10T12:07:33.219Z,0.2861
2023-04-10T12:08:36.478Z,2.8582
2023-04-10T12:09:38.039Z,4.4126
2023-04-10T12:10:41.308Z,4.8029
2023-04-10T12:11:41.371Z,4.3431
2023-04-10T12:12:44.652Z,5.8320
2023-04-10T12:13:47.950Z,5.2637
2023-04-10T12:14:47.975Z,4.7631
2023-04-10T12:15:51.296Z,3.1460
2023-04-10T12:16:51.319Z,2.3507
2023-04-10T12:17:54.660Z,3.4898
2023-04-10T12:18:58.200Z,7.0340
2023-04-10T12:19:58.091Z,6.8065
2023-04-10T12:21:01.456Z,5.0838
2023-04-10T12:22:01.597Z,8.9167
2023-04-10T12:23:04.865Z,3.5410
2023-04-10T12:24:08.224Z,1.9449
2023-04-10T12:25:11.520Z,4.9148
2023-04-10T12:26:14.849Z,8.1212
2023-04-10T12:27:14.836Z,3.2552
2023-04-10T12:28:18.140Z,2.5749
2023-04-10T12:29:21.500Z,3.3163
2023-04-10T12:30:25.614Z,1.6585
2023-04-10T12:31:25.439Z,2.8653
2023-04-10T12:32:28.734Z,7.2042
2023-04-10T12:33:32.032Z,5.3746
2023-04-10T12:34:35.356Z,5.6071
2023-04-10T12:35:38.688Z,3.6576
2023-04-10T12:36:42.060Z,3.1979
2023-04-10T12:37:45.404Z,3.1463
2023-04-10T12:38:48.709Z,6.0001
2023-04-10T12:39:48.737Z,5.0633
2023-04-10T12:40:52.073Z,9.3804
2023-04-10T12:41:52.094Z,8.9811
2023-04-10T12:42:55.408Z,7.8943
2023-04-10T12:43:58.831Z,9.7031
2023-04-10T12:45:02.180Z,6.0605
2023-04-10T12:46:05.573Z,6.6837
2023-04-10T12:47:05.643Z,5.9630
2023-04-10T12:48:08.972Z,5.6026
2023-04-10T12:49:12.282Z,8.4654
2023-04-10T12:50:15.559Z,10.5746
2023-04-10T12:51:19.116Z,7.0351
2023-04-10T12:52:18.944Z,6.0258
2023-04-10T12:53:22.261Z,7.7223
2023-04-10T12:54:22.317Z,5.3621
2023-04-10T12:55:25.646Z,5.6611
2023-04-10T12:56:28.952Z,7.2044
2023-04-10T12:57:32.282Z,7.1459
2023-04-10T12:58:35.594Z,6.9750
2023-04-10T12:59:38.893Z,12.3563
2023-04-10T13:00:42.186Z,10.6371
2023-04-10T13:01:45.579Z,8.5780
2023-04-10T13:02:49.178Z,7.2530
2023-04-10T13:03:49.235Z,6.4880
2023-04-10T13:04:49.212Z,7.3524